createdAt,value
2023-01-23T00:01:38.974Z,12.10
2023-01-23T00:06:24.230Z,19.57
2023-01-23T00:11:15.886Z,17.63
2023-01-23T00:16:03.219Z,14.33
2023-01-23T00:20:46.956Z,13.70
2023-01-23T00:25:35.388Z,30.83
2023-01-23T00:30:25.085Z,22.40
2023-01-23T00:35:12.792Z,15.17
2023-01-23T00:40:02.518Z,13.67
2023-01-23T00:44:47.677Z,19.77
2023-01-23T00:49:38.661Z,16.80
2023-01-23T00:54:26.048Z,19.67
2023-01-23T00:59:11.529Z,26.40
2023-01-23T01:04:03.816Z,15.27
2023-01-23T01:08:49.315Z,11.20
2023-01-23T01:13:37.061Z,11.77
2023-01-23T01:18:27.405Z,18.97
2023-01-23T01:23:20.640Z,14.03
2023-01-23T01:28:10.685Z,16.83
2023-01-23T01:32:56.120Z,17.20
2023-01-23T01:37:43.976Z,17.37
2023-01-23T01:42:33.071Z,12.90
2023-01-23T01:47:22.961Z,13.77
2023-01-23T01:52:11.046Z,13.10
2023-01-23T01:57:00.271Z,16.20
2023-01-23T02:01:47.111Z,12.77
2023-01-23T02:06:36.014Z,14.13
2023-01-23T02:11:20.146Z,16.43
2023-01-23T02:16:22.291Z,17.73
2023-01-23T02:21:15.379Z,16.83
2023-01-23T02:26:06.252Z,11.83
2023-01-23T02:30:51.305Z,15.00
2023-01-23T02:36:12.075Z,16.07
2023-01-23T02:46:30.055Z,14.80
2023-01-23T02:51:49.218Z,14.00
2023-01-23T02:56:53.336Z,11.70
2023-01-23T03:07:03.326Z,17.90
2023-01-23T03:17:59.874Z,14.40
2023-01-23T03:22:54.833Z,25.27
2023-01-23T03:27:58.505Z,22.47
2023-01-23T03:33:13.878Z,15.17
2023-01-23T03:38:35.084Z,18.10
2023-01-23T03:48:42.026Z,14.03
2023-01-23T03:53:30.497Z,13.23
2023-01-23T03:58:18.337Z,19.03
2023-01-23T04:03:10.833Z,13.80
2023-01-23T04:08:14.282Z,11.70
2023-01-23T04:12:59.587Z,13.80
2023-01-23T04:18:00.179Z,11.73
2023-01-23T04:22:48.280Z,12.47
2023-01-23T04:27:39.698Z,14.60
2023-01-23T04:32:28.487Z,14.17
2023-01-23T04:37:15.469Z,16.00
2023-01-23T04:42:15.594Z,13.00
2023-01-23T04:47:36.962Z,14.50
2023-01-23T04:52:25.611Z,13.80
2023-01-23T04:57:18.330Z,14.07
2023-01-23T05:02:50.554Z,12.33
2023-01-23T05:07:39.896Z,14.33
2023-01-23T05:12:42.961Z,14.07
2023-01-23T05:17:31.114Z,13.27
2023-01-23T05:22:20.863Z,13.80
2023-01-23T05:27:24.781Z,12.83
2023-01-23T05:32:41.818Z,13.53
2023-01-23T05:38:01.982Z,11.93
2023-01-23T05:42:48.215Z,13.30
2023-01-23T05:47:52.599Z,14.03
2023-01-23T05:52:40.116Z,13.30
2023-01-23T05:57:29.716Z,14.43
2023-01-23T06:02:33.767Z,13.53
2023-01-23T06:07:54.696Z,14.77
2023-01-23T06:12:53.131Z,13.13
2023-01-23T06:17:46.017Z,14.97
2023-01-23T06:27:35.578Z,24.77
2023-01-23T06:32:28.999Z,26.67
2023-01-23T06:37:24.741Z,15.97
2023-01-23T06:42:17.854Z,15.50
2023-01-23T06:47:08.306Z,16.50
2023-01-23T06:52:10.832Z,26.53
2023-01-23T06:57:13.646Z,36.13
2023-01-23T07:02:13.801Z,29.87
2023-01-23T07:08:11.172Z,20.60
2023-01-23T07:13:09.157Z,26.07
2023-01-23T07:18:13.547Z,20.30
2023-01-23T07:23:10.125Z,23.23
2023-01-23T07:28:08.240Z,22.20
2023-01-23T07:32:58.508Z,17.37
2023-01-23T07:37:50.169Z,22.03
2023-01-23T07:42:50.003Z,15.57
2023-01-23T07:47:37.561Z,18.77
2023-01-23T07:52:24.936Z,15.37
2023-01-23T07:57:12.680Z,22.10
2023-01-23T08:01:59.748Z,19.00
2023-01-23T08:07:21.360Z,18.53
2023-01-23T08:12:09.330Z,16.97
2023-01-23T08:16:56.234Z,17.73
2023-01-23T08:21:46.208Z,19.87
2023-01-23T08:26:34.670Z,18.90
2023-01-23T08:31:21.488Z,23.10
2023-01-23T08:36:11.314Z,18.27
2023-01-23T08:40:59.415Z,18.37
2023-01-23T08:45:50.688Z,23.17
2023-01-23T08:50:54.293Z,18.37
2023-01-23T08:55:39.102Z,22.73
2023-01-23T09:00:24.014Z,23.07
2023-01-23T09:05:18.315Z,26.00
2023-01-23T09:10:02.148Z,21.60
2023-01-23T09:14:47.303Z,20.17
2023-01-23T09:19:38.116Z,17.90
2023-01-23T09:24:25.926Z,18.97
2023-01-23T09:29:12.405Z,18.10
2023-01-23T09:34:05.058Z,18.40
2023-01-23T09:38:49.667Z,18.63
2023-01-23T09:43:52.172Z,18.37
2023-01-23T09:48:46.114Z,18.67
2023-01-23T09:53:47.122Z,18.43
2023-01-23T09:58:37.369Z,18.07
2023-01-23T10:03:23.735Z,16.20
2023-01-23T10:08:23.724Z,17.40
2023-01-23T10:13:26.703Z,16.13
2023-01-23T10:18:34.931Z,16.30
2023-01-23T10:23:39.229Z,16.10
2023-01-23T10:28:43.129Z,17.27
2023-01-23T10:33:49.989Z,18.70
2023-01-23T10:38:48.144Z,18.63
2023-01-23T10:43:37.275Z,21.63
2023-01-23T10:48:54.825Z,17.43
2023-01-23T10:54:04.504Z,17.63
2023-01-23T10:58:50.131Z,19.33
2023-01-23T11:03:37.188Z,17.80
2023-01-23T11:08:28.316Z,17.33
2023-01-23T11:13:27.795Z,17.03
2023-01-23T11:18:33.320Z,17.40
2023-01-23T11:23:20.913Z,16.13
2023-01-23T11:33:31.048Z,15.27
2023-01-23T11:38:27.151Z,16.03
2023-01-23T11:43:20.609Z,14.53
2023-01-23T11:48:25.606Z,15.07
2023-01-23T11:53:36.978Z,15.07
2023-01-23T11:58:50.486Z,15.83
2023-01-23T12:04:06.504Z,15.93
2023-01-23T12:09:15.891Z,15.20
2023-01-23T12:14:13.921Z,15.57
2023-01-23T12:19:16.761Z,15.73
2023-01-23T12:24:22.331Z,14.23
2023-01-23T12:29:42.784Z,15.07
2023-01-23T12:34:45.691Z,15.07
2023-01-23T12:39:52.268Z,14.40
2023-01-23T12:44:58.741Z,15.57
2023-01-23T12:49:59.372Z,15.63
2023-01-23T12:55:02.985Z,16.93
2023-01-23T13:00:07.631Z,16.07
2023-01-23T13:05:16.071Z,17.97
2023-01-23T13:10:47.465Z,18.80
2023-01-23T13:16:41.332Z,17.37
2023-01-23T13:21:48.679Z,18.73
2023-01-23T13:26:32.320Z,23.07
2023-01-23T13:31:36.726Z,20.27
2023-01-23T14:59:34.835Z,32.70
2023-01-23T15:04:40.848Z,41.53
2023-01-23T15:09:34.588Z,39.73
2023-01-23T15:14:38.433Z,41.27
2023-01-23T15:20:07.249Z,71.53
2023-01-23T15:25:27.772Z,71.07
2023-01-23T15:30:45.747Z,45.37
2023-01-23T15:35:42.012Z,222.97
2023-01-23T15:40:44.717Z,265.47
2023-01-23T15:45:29.111Z,153.57
2023-01-23T15:50:16.933Z,52.53
2023-01-23T15:55:17.855Z,65.07
2023-01-23T16:00:22.758Z,134.87
2023-01-23T16:05:18.097Z,60.93
2023-01-23T16:10:03.027Z,30.90
2023-01-23T16:14:49.974Z,51.37
2023-01-23T16:19:42.131Z,40.53
2023-01-23T16:24:44.540Z,39.97
2023-01-23T16:29:50.391Z,43.10
2023-01-23T16:34:34.745Z,51.13
2023-01-23T16:39:32.640Z,36.57
2023-01-23T16:44:30.422Z,46.37
2023-01-23T16:49:34.176Z,52.33
2023-01-23T16:54:49.772Z,52.40
2023-01-23T16:59:53.305Z,59.50
2023-01-23T17:04:51.014Z,35.37
2023-01-23T17:09:34.972Z,109.03
2023-01-23T17:14:22.300Z,103.57
2023-01-23T17:19:22.403Z,51.10
2023-01-23T17:24:28.084Z,41.60
2023-01-23T17:29:46.162Z,42.80
2023-01-23T17:34:50.330Z,40.63
2023-01-23T17:39:44.545Z,41.00
2023-01-23T17:44:29.770Z,45.90
2023-01-23T17:49:35.996Z,40.83
2023-01-23T17:54:22.467Z,34.27
2023-01-23T17:59:13.511Z,46.57
2023-01-23T18:04:03.886Z,60.60
2023-01-23T18:09:02.877Z,32.70
2023-01-23T18:14:24.134Z,39.17
2023-01-23T18:19:25.033Z,49.27
2023-01-23T18:24:29.661Z,47.93
2023-01-23T18:29:49.141Z,37.03
2023-01-23T18:34:53.689Z,37.43
2023-01-23T18:40:16.290Z,39.77
2023-01-23T18:45:26.956Z,44.27
2023-01-23T19:09:15.650Z,40.90
2023-01-23T19:14:38.065Z,105.73
2023-01-23T19:20:00.661Z,54.00
2023-01-23T19:25:06.258Z,71.30
2023-01-23T19:52:03.316Z,40.60
2023-01-23T19:57:05.213Z,50.30
2023-01-23T20:02:51.929Z,66.27
2023-01-23T20:08:27.970Z,108.73
2023-01-23T20:13:21.976Z,37.63
2023-01-23T20:18:08.455Z,30.50
2023-01-23T20:23:40.336Z,25.93
2023-01-23T20:28:30.980Z,51.77
2023-01-23T20:33:50.370Z,40.30
2023-01-23T20:38:42.422Z,47.23
2023-01-23T20:49:18.250Z,38.67
2023-01-23T20:54:24.893Z,25.63
2023-01-23T20:59:27.195Z,42.47
2023-01-23T21:04:16.284Z,46.93
2023-01-23T21:10:06.280Z,55.13
2023-01-23T21:14:55.269Z,34.17
2023-01-23T21:19:48.065Z,32.17
2023-01-23T21:24:47.057Z,148.03
2023-01-23T21:29:54.229Z,60.03
2023-01-23T21:34:54.975Z,40.00
2023-01-23T21:39:56.786Z,55.80
2023-01-23T21:45:00.384Z,53.90
2023-01-23T21:49:52.016Z,41.00
2023-01-23T21:54:43.763Z,40.90
2023-01-23T22:00:04.071Z,39.37
2023-01-23T22:05:06.770Z,46.70
2023-01-23T22:10:11.105Z,47.97
2023-01-23T22:15:07.475Z,111.03
2023-01-23T22:20:14.396Z,79.87
2023-01-23T22:25:05.865Z,117.10
2023-01-23T22:34:56.227Z,46.47
2023-01-23T22:39:47.859Z,44.73
2023-01-23T22:44:45.975Z,40.77
2023-01-23T22:49:49.270Z,27.53
2023-01-23T22:54:37.655Z,30.03
2023-01-23T22:59:31.482Z,59.40
2023-01-23T23:04:34.016Z,45.07
2023-01-23T23:09:20.065Z,30.50
2023-01-23T23:14:04.850Z,39.17
2023-01-23T23:18:57.299Z,41.00
2023-01-23T23:23:45.622Z,44.47
2023-01-23T23:28:30.709Z,65.57
2023-01-23T23:33:17.299Z,37.20
2023-01-23T23:38:06.993Z,29.07
2023-01-23T23:43:10.493Z,30.63
2023-01-23T23:47:58.547Z,55.57
2023-01-23T23:52:48.051Z,46.60
2023-01-23T23:57:50.643Z,55.80
